Glenrock, Wyoming
Current Conditions -  °F | °C
As of 10:04 AM on Wednesday 26 Nov 2014 (Local Time) from KCPR Reporting Station
Scattered Clouds Scattered Clouds  
Wind Chill: -6°   Ceiling: Unl
Heat Index: -3°   Visibility: 10mi
Dew Point: -7°   Wind: 5mph
Humidity: 75%   Direction: 110°ESE
Pressure: 30.15"   Gusts: NA
Location:  42.86°N, 105.87°W
Report Text: KCPR 261704Z 11004KT 10SM SCT020 SCT036 M03/M07 A3015 RMK AO2 T10281067
Loading
Personal Weather Stations






























Interactive Weather Map New forecast layout! Learn more

10-Day Weather Forecast

Advertisements
Track Severe Weather on mobile